Cut Bank Municipal

About
Name: Cut Bank Municipal
Identifier:  CTB/KCTB
Serves:  Cut Bank, Montana
Owner:  Cut Bank and Glacier County
Public/Private:  Public
Local Time:  25. Aug 02:52 MDT
Description: Cut Bank Municipal Airport is three miles southwest of Cut Bank, in Glacier County, Montana. It is owned by Cut Bank and Glacier County.
Source: Wikipedia
Location
Runways
Identifier Length (m/ft) Surface
5/23 5,299/5,299 Asphalt
13/31 5,300/5,300 Asphalt
Flights per Day
0 flights
Distance: 145km (90mi)
Punctuality
80% (0 flights per day delayed)
Delay Average: 1494 minutes
Current Weather
 13 C (Humidity: 54%)
  13kt (24km/h / 14mph) from 330°
  Broken clouds at 8,000 feet (2,438 meter)
  16km (10 mi.)
 METAR KCTB 250756Z AUTO 33013KT 10SM BKN080 13/04 A2987 RMK AO2 SLP088 T01330044

Current Flights

Departures
Number Departure To Airline
Arrivals
Number Arrival From Airline

Current Delays

Departures
N/A
Arrivals
N/A

Destinations

Top Destinations
Airport Flights
per week
Seats
per week
  Great Falls (GTF) 5 - 0 0
  Billings (BIL) 0 - 0 0
  Renton (RNT) 0 - 0 0
  Edmonton (YEG) 0 - 0 0
  Cody (COD) 0 - 0 0

Airlines & Planes

Top Airlines
Airline Flights
per Day
Seats
per Day
Alpine Air Express 0 -
Jet Charter Inc ( Franklin Lakes Nj ) 0 -
  National Airlines 0 -
Top Plane Types
Model Flights Seats
Beech 1900D 0.8/day - 0
Beech C-99 Airliner 0.1/day - 0
Piper PA-46-350P Malibu Mirage 0.0/day - 0